createdAt,value
2023-04-23T00:01:44.893Z,25.09
2023-04-23T00:04:12.220Z,25.18
2023-04-23T00:06:39.686Z,25.08
2023-04-23T00:09:06.979Z,25.06
2023-04-23T00:11:33.692Z,25.06
2023-04-23T00:14:00.308Z,24.87
2023-04-23T00:16:26.936Z,24.83
2023-04-23T00:18:53.445Z,24.93
2023-04-23T00:21:20.019Z,24.94
2023-04-23T00:23:46.554Z,24.88
2023-04-23T00:26:13.055Z,24.85
2023-04-23T00:28:40.744Z,24.92
2023-04-23T00:31:07.781Z,24.84
2023-04-23T00:33:34.433Z,24.86
2023-04-23T00:36:01.106Z,24.85
2023-04-23T00:38:27.905Z,24.84
2023-04-23T00:40:54.434Z,24.91
2023-04-23T00:43:21.057Z,24.77
2023-04-23T00:45:47.972Z,24.70
2023-04-23T00:48:14.828Z,24.78
2023-04-23T00:50:41.872Z,24.60
2023-04-23T00:53:08.826Z,24.64
2023-04-23T00:55:35.604Z,24.70
2023-04-23T00:58:02.587Z,24.66
2023-04-23T01:00:29.529Z,24.73
2023-04-23T01:02:58.530Z,24.75
2023-04-23T01:05:25.640Z,24.71
2023-04-23T01:07:52.183Z,24.69
2023-04-23T01:10:19.227Z,24.69
2023-04-23T01:12:46.469Z,24.75
2023-04-23T01:15:12.976Z,24.73
2023-04-23T01:17:39.867Z,24.72
2023-04-23T01:20:06.966Z,24.73
2023-04-23T01:22:37.240Z,24.75
2023-04-23T01:25:04.541Z,24.67
2023-04-23T01:27:31.769Z,24.66
2023-04-23T01:29:58.867Z,24.49
2023-04-23T01:32:26.234Z,24.44
2023-04-23T01:34:55.078Z,24.41
2023-04-23T01:37:21.752Z,24.38
2023-04-23T01:39:48.271Z,24.38
2023-04-23T01:42:14.765Z,24.46
2023-04-23T01:44:42.687Z,24.45
2023-04-23T01:47:09.438Z,24.40
2023-04-23T01:49:36.010Z,24.29
2023-04-23T01:52:02.602Z,24.10
2023-04-23T01:54:29.127Z,23.59
2023-04-23T01:56:55.887Z,23.25
2023-04-23T01:59:22.954Z,23.16
2023-04-23T02:01:49.814Z,22.97
2023-04-23T02:04:17.832Z,22.84
2023-04-23T02:06:47.501Z,22.96
2023-04-23T02:09:14.412Z,23.03
2023-04-23T02:11:41.184Z,23.19
2023-04-23T02:14:08.305Z,23.32
2023-04-23T02:16:35.124Z,23.43
2023-04-23T02:19:01.981Z,23.57
2023-04-23T02:21:28.694Z,23.69
2023-04-23T02:23:55.405Z,23.74
2023-04-23T02:26:22.841Z,23.73
2023-04-23T02:28:49.662Z,23.73
2023-04-23T02:31:16.685Z,23.75
2023-04-23T02:33:43.634Z,23.84
2023-04-23T02:36:13.003Z,23.87
2023-04-23T02:38:44.680Z,23.87
2023-04-23T02:41:12.046Z,23.92
2023-04-23T02:43:38.588Z,23.98
2023-04-23T02:46:12.157Z,23.86
2023-04-23T02:48:40.801Z,23.93
2023-04-23T02:51:09.792Z,23.97
2023-04-23T02:53:36.476Z,23.98
2023-04-23T02:56:03.098Z,24.04
2023-04-23T02:58:31.012Z,24.01
2023-04-23T03:01:00.291Z,24.01
2023-04-23T03:03:31.855Z,24.03
2023-04-23T03:06:00.678Z,23.94
2023-04-23T03:08:27.711Z,23.94
2023-04-23T03:10:54.315Z,23.97
2023-04-23T03:13:21.123Z,23.91
2023-04-23T03:15:48.140Z,23.87
2023-04-23T03:18:14.672Z,23.89
2023-04-23T03:20:41.248Z,23.84
2023-04-23T03:23:07.822Z,23.82
2023-04-23T03:25:34.478Z,23.81
2023-04-23T03:28:01.071Z,23.87
2023-04-23T03:30:29.217Z,23.87
2023-04-23T03:32:56.991Z,23.85
2023-04-23T03:35:24.590Z,23.87
2023-04-23T03:37:52.318Z,23.82
2023-04-23T03:40:19.551Z,23.82
2023-04-23T03:42:48.794Z,23.85
2023-04-23T03:45:17.734Z,23.80
2023-04-23T03:47:44.642Z,23.76
2023-04-23T03:50:13.294Z,23.60
2023-04-23T03:52:41.211Z,23.68
2023-04-23T03:55:13.176Z,23.61
2023-04-23T03:57:43.442Z,23.75
2023-04-23T04:00:19.572Z,23.86
2023-04-23T04:02:46.365Z,23.97
2023-04-23T04:05:13.273Z,24.03
2023-04-23T04:07:40.650Z,24.12
2023-04-23T04:10:07.855Z,24.10
2023-04-23T04:12:34.586Z,24.14
2023-04-23T04:15:02.972Z,24.15
2023-04-23T04:17:32.057Z,24.14
2023-04-23T04:19:58.611Z,24.06
2023-04-23T04:22:28.047Z,24.14
2023-04-23T04:24:54.724Z,24.24
2023-04-23T04:27:21.357Z,24.26
2023-04-23T04:29:48.736Z,24.25
2023-04-23T04:32:15.386Z,24.27
2023-04-23T04:34:44.937Z,24.37
2023-04-23T04:37:11.629Z,24.30
2023-04-23T04:39:40.686Z,24.36
2023-04-23T04:42:15.691Z,24.44
2023-04-23T04:44:44.048Z,24.28
2023-04-23T04:47:10.734Z,24.08
2023-04-23T04:49:40.168Z,23.77
2023-04-23T04:52:09.397Z,23.72
2023-04-23T04:54:35.920Z,23.81
2023-04-23T04:57:02.686Z,23.90
2023-04-23T04:59:29.248Z,23.96
2023-04-23T05:01:56.758Z,24.02
2023-04-23T05:04:26.539Z,24.15
2023-04-23T05:06:54.237Z,24.08
2023-04-23T05:09:20.870Z,24.10
2023-04-23T05:11:47.397Z,24.10
2023-04-23T05:14:19.079Z,24.11
2023-04-23T05:16:45.645Z,23.90
2023-04-23T05:19:12.257Z,23.93
2023-04-23T05:21:38.795Z,23.97
2023-04-23T05:24:33.113Z,24.33
2023-04-23T05:26:59.683Z,23.74
2023-04-23T05:29:26.770Z,23.80
2023-04-23T05:31:53.328Z,23.70
2023-04-23T05:34:19.962Z,23.52
2023-04-23T05:36:46.706Z,23.41
2023-04-23T05:39:13.248Z,23.45
2023-04-23T05:41:39.821Z,23.40
2023-04-23T05:44:06.387Z,23.35
2023-04-23T05:46:32.975Z,23.42
2023-04-23T05:48:59.543Z,23.60
2023-04-23T05:51:26.088Z,23.78
2023-04-23T05:53:52.626Z,23.93
2023-04-23T05:56:19.163Z,23.94
2023-04-23T05:58:46.326Z,23.92
2023-04-23T06:01:12.882Z,23.93
2023-04-23T06:03:42.078Z,23.94
2023-04-23T06:06:08.754Z,23.88
2023-04-23T06:08:35.336Z,23.85
2023-04-23T06:11:12.454Z,24.16
2023-04-23T06:13:43.495Z,24.04
2023-04-23T06:16:10.405Z,24.17
2023-04-23T06:18:37.835Z,24.24
2023-04-23T06:21:04.581Z,24.23
2023-04-23T06:23:31.730Z,24.32
2023-04-23T06:25:58.606Z,24.36
2023-04-23T06:28:25.248Z,24.38
2023-04-23T06:31:14.602Z,24.43
2023-04-23T06:33:41.751Z,24.36
2023-04-23T06:36:10.954Z,24.29
2023-04-23T06:38:38.064Z,24.33
2023-04-23T06:41:04.819Z,24.25
2023-04-23T06:43:31.531Z,24.29
2023-04-23T06:46:16.678Z,24.26
2023-04-23T06:48:43.225Z,24.20
2023-04-23T06:51:09.812Z,24.26
2023-04-23T06:53:37.525Z,24.25
2023-04-23T06:56:04.719Z,24.15
2023-04-23T06:58:32.231Z,24.27
2023-04-23T07:01:04.318Z,24.29
2023-04-23T07:03:33.473Z,24.09
2023-04-23T07:06:00.014Z,24.11
2023-04-23T07:08:27.061Z,24.06
2023-04-23T07:10:53.725Z,23.80
2023-04-23T07:13:20.234Z,23.71
2023-04-23T07:15:49.417Z,23.71
2023-04-23T07:18:16.014Z,23.73
2023-04-23T07:20:42.551Z,23.67
2023-04-23T07:23:09.093Z,23.62
2023-04-23T07:25:35.816Z,23.68
2023-04-23T07:28:02.447Z,23.75
2023-04-23T07:30:29.001Z,23.82
2023-04-23T07:32:55.742Z,23.82
2023-04-23T07:35:22.638Z,23.81
2023-04-23T07:37:53.720Z,23.86
2023-04-23T07:40:23.238Z,24.75
2023-04-23T07:42:51.350Z,24.13
2023-04-23T07:45:18.719Z,24.05
2023-04-23T07:47:46.690Z,23.93
2023-04-23T07:50:13.936Z,24.00
2023-04-23T07:52:40.473Z,24.05
2023-04-23T07:55:07.706Z,24.08
2023-04-23T07:57:34.207Z,24.00
2023-04-23T08:00:00.957Z,23.99
2023-04-23T08:02:28.466Z,24.05
2023-04-23T08:04:55.502Z,24.14
2023-04-23T08:07:22.264Z,24.10
2023-04-23T08:09:49.068Z,24.30
2023-04-23T08:12:17.412Z,24.37
2023-04-23T08:14:44.491Z,24.46
2023-04-23T08:17:14.429Z,24.65
2023-04-23T08:19:41.160Z,24.66
2023-04-23T08:22:07.946Z,24.74
2023-04-23T08:24:34.473Z,24.87
2023-04-23T08:27:01.794Z,24.74
2023-04-23T08:29:28.304Z,24.96
2023-04-23T08:31:55.093Z,25.03
2023-04-23T08:34:21.669Z,25.17
2023-04-23T08:36:49.479Z,25.32
2023-04-23T08:39:16.001Z,25.46
2023-04-23T08:41:44.005Z,25.28
2023-04-23T08:44:14.109Z,25.37
2023-04-23T08:46:48.453Z,25.33
2023-04-23T08:49:16.680Z,25.25
2023-04-23T08:51:48.778Z,25.35
2023-04-23T08:54:27.073Z,25.23
2023-04-23T08:56:57.407Z,25.16
2023-04-23T08:59:25.973Z,25.20
2023-04-23T09:01:53.754Z,25.13
2023-04-23T09:04:20.600Z,25.04
2023-04-23T09:06:47.170Z,25.11
2023-04-23T09:09:18.014Z,25.27
2023-04-23T09:11:44.809Z,25.21
2023-04-23T09:14:12.761Z,25.23
2023-04-23T09:16:42.572Z,25.03
2023-04-23T09:19:10.365Z,25.03
2023-04-23T09:21:39.347Z,24.92
2023-04-23T09:24:06.279Z,24.72
2023-04-23T09:26:33.052Z,24.64
2023-04-23T09:28:59.576Z,24.77
2023-04-23T09:31:26.230Z,24.68
2023-04-23T09:33:53.907Z,24.67
2023-04-23T09:36:22.819Z,24.53
2023-04-23T09:38:50.501Z,24.45
2023-04-23T09:41:23.884Z,24.53
2023-04-23T09:43:50.459Z,24.43
2023-04-23T09:46:17.033Z,24.47
2023-04-23T09:48:43.705Z,24.49
2023-04-23T09:51:14.040Z,24.64
2023-04-23T09:53:44.216Z,24.54
2023-04-23T09:56:10.756Z,24.13
2023-04-23T09:58:37.881Z,23.95
2023-04-23T10:01:08.680Z,23.75
2023-04-23T10:03:35.508Z,23.64
2023-04-23T10:06:03.273Z,23.50
2023-04-23T10:08:31.928Z,23.56
2023-04-23T10:11:10.017Z,23.34
2023-04-23T10:13:54.989Z,23.54
2023-04-23T10:16:25.526Z,23.32
2023-04-23T10:18:59.718Z,23.59
2023-04-23T10:21:39.461Z,23.50
2023-04-23T10:24:13.737Z,23.54
2023-04-23T10:26:42.484Z,23.83
2023-04-23T10:29:15.312Z,24.15
2023-04-23T10:31:42.847Z,24.25
2023-04-23T10:34:12.590Z,24.52
2023-04-23T10:36:39.165Z,24.45
2023-04-23T10:39:09.366Z,24.58
2023-04-23T10:41:38.025Z,24.68
2023-04-23T10:44:05.897Z,24.74
2023-04-23T10:46:33.399Z,24.86
2023-04-23T10:49:07.236Z,25.34
2023-04-23T10:52:14.632Z,25.35
2023-04-23T10:54:21.674Z,25.47
2023-04-23T10:56:58.795Z,25.62
2023-04-23T10:59:25.617Z,25.30
2023-04-23T11:01:52.737Z,25.26
2023-04-23T11:04:29.540Z,25.23
2023-04-23T11:06:58.293Z,25.27
2023-04-23T11:09:38.475Z,25.56
2023-04-23T11:12:32.785Z,25.57
2023-04-23T11:15:00.260Z,25.38
2023-04-23T11:17:32.874Z,25.60
2023-04-23T11:20:16.364Z,25.78
2023-04-23T11:22:44.502Z,25.66
2023-04-23T11:25:12.871Z,25.54
2023-04-23T11:27:43.480Z,25.56
2023-04-23T11:30:13.987Z,25.61
2023-04-23T11:32:42.205Z,25.45
2023-04-23T11:35:11.400Z,25.30
2023-04-23T11:37:45.416Z,25.53
2023-04-23T11:40:14.285Z,25.59
2023-04-23T11:42:43.384Z,25.78
2023-04-23T11:45:15.852Z,26.43
2023-04-23T11:47:43.173Z,26.98
2023-04-23T11:50:10.064Z,27.61
2023-04-23T11:52:37.862Z,28.19
2023-04-23T11:55:07.318Z,28.72
2023-04-23T11:57:41.662Z,29.34
2023-04-23T12:00:19.274Z,29.90
2023-04-23T12:02:58.745Z,29.90
2023-04-23T12:05:35.191Z,29.53
2023-04-23T12:08:21.233Z,29.76
2023-04-23T12:10:49.573Z,29.46
2023-04-23T12:13:21.721Z,29.58
2023-04-23T12:15:53.576Z,29.69
2023-04-23T12:18:20.245Z,29.66
2023-04-23T12:20:46.805Z,29.46
2023-04-23T12:23:13.349Z,29.43
2023-04-23T12:25:40.604Z,29.74
2023-04-23T12:28:07.328Z,30.19
2023-04-23T12:30:35.443Z,30.82
2023-04-23T12:33:02.526Z,31.50
2023-04-23T12:35:54.398Z,32.53
2023-04-23T12:38:26.052Z,32.51
2023-04-23T12:40:54.364Z,32.61
2023-04-23T12:43:21.413Z,33.22
2023-04-23T12:45:48.057Z,33.83
2023-04-23T12:48:14.592Z,34.29
2023-04-23T12:50:50.667Z,34.75
2023-04-23T12:53:18.211Z,35.28
2023-04-23T12:55:45.747Z,35.47
2023-04-23T12:58:12.460Z,35.71
2023-04-23T13:00:39.057Z,35.97
2023-04-23T13:03:05.686Z,36.07
2023-04-23T13:05:32.295Z,36.38
2023-04-23T13:08:00.985Z,36.19
2023-04-23T13:10:27.824Z,35.87
2023-04-23T13:12:54.359Z,35.40
2023-04-23T13:15:20.867Z,35.39
2023-04-23T13:17:47.433Z,35.54
2023-04-23T13:20:13.965Z,35.03
2023-04-23T13:22:40.724Z,34.67
2023-04-23T13:25:07.406Z,34.81
2023-04-23T13:27:33.941Z,34.97
2023-04-23T13:30:01.480Z,35.15
2023-04-23T13:32:31.981Z,35.09
2023-04-23T13:35:01.835Z,35.89
2023-04-23T13:37:31.411Z,35.26
2023-04-23T13:39:58.007Z,35.15
2023-04-23T13:42:24.602Z,34.71
2023-04-23T13:44:51.238Z,34.22
2023-04-23T13:47:17.914Z,34.10
2023-04-23T13:49:44.557Z,34.29
2023-04-23T13:52:11.184Z,34.53
2023-04-23T13:54:38.205Z,34.40
2023-04-23T13:57:04.762Z,34.04
2023-04-23T13:59:31.269Z,33.52
2023-04-23T14:01:58.044Z,33.07
2023-04-23T14:04:24.810Z,33.11
2023-04-23T14:06:51.423Z,32.68
2023-04-23T14:09:18.955Z,32.42
2023-04-23T14:11:45.511Z,32.07
2023-04-23T14:14:12.154Z,31.78
2023-04-23T14:16:38.958Z,31.58
2023-04-23T14:19:05.501Z,31.83
2023-04-23T14:21:32.039Z,32.04
2023-04-23T14:24:08.332Z,32.66
2023-04-23T14:29:32.755Z,33.49
2023-04-23T14:31:59.401Z,33.48
2023-04-23T14:34:27.109Z,33.49
2023-04-23T14:36:54.288Z,33.19
2023-04-23T14:39:25.819Z,33.21
2023-04-23T14:41:52.733Z,32.87
2023-04-23T14:44:19.296Z,32.55
2023-04-23T14:46:45.922Z,32.21
2023-04-23T14:49:12.481Z,31.88
2023-04-23T14:51:39.024Z,31.56
2023-04-23T14:54:05.712Z,31.37
2023-04-23T14:56:32.221Z,31.32
2023-04-23T14:58:58.826Z,31.19
2023-04-23T15:01:25.399Z,31.02
2023-04-23T15:03:53.201Z,30.84
2023-04-23T15:06:19.872Z,30.65
2023-04-23T15:08:46.429Z,30.39
2023-04-23T15:11:13.551Z,30.23
2023-04-23T15:13:50.366Z,30.38
2023-04-23T15:16:26.286Z,30.26
2023-04-23T15:19:04.244Z,29.81
2023-04-23T15:21:30.770Z,29.59
2023-04-23T15:23:57.490Z,29.47
2023-04-23T15:26:25.587Z,29.39
2023-04-23T15:28:52.080Z,29.07
2023-04-23T15:31:18.608Z,28.86
2023-04-23T15:33:45.191Z,28.67
2023-04-23T15:36:11.805Z,28.50
2023-04-23T15:38:38.301Z,28.41
2023-04-23T15:41:05.493Z,28.04
2023-04-23T15:43:32.023Z,28.14
2023-04-23T15:46:00.751Z,28.20
2023-04-23T15:48:27.832Z,28.20
2023-04-23T15:50:54.436Z,28.26
2023-04-23T15:53:22.824Z,28.25
2023-04-23T15:55:51.245Z,28.31
2023-04-23T15:58:21.103Z,28.30
2023-04-23T16:00:47.684Z,28.20
2023-04-23T16:03:15.238Z,28.19
2023-04-23T16:05:42.515Z,28.07
2023-04-23T16:08:09.865Z,28.08
2023-04-23T16:10:38.095Z,28.12
2023-04-23T16:13:04.622Z,27.87
2023-04-23T16:15:31.157Z,27.83
2023-04-23T16:17:59.859Z,27.88
2023-04-23T16:20:27.926Z,27.93
2023-04-23T16:22:54.976Z,28.03
2023-04-23T16:25:21.571Z,28.03
2023-04-23T16:27:48.559Z,27.94
2023-04-23T16:30:15.692Z,27.90
2023-04-23T16:32:42.215Z,27.83
2023-04-23T16:35:09.102Z,27.83
2023-04-23T16:37:35.834Z,27.55
2023-04-23T16:40:02.392Z,27.41
2023-04-23T16:42:28.927Z,27.39
2023-04-23T16:44:55.439Z,27.38
2023-04-23T16:47:21.981Z,27.38
2023-04-23T16:49:48.533Z,27.39
2023-04-23T16:52:15.138Z,27.47
2023-04-23T16:54:41.791Z,27.49
2023-04-23T16:57:08.529Z,27.36
2023-04-23T16:59:35.080Z,27.29
2023-04-23T17:02:01.648Z,27.13
2023-04-23T17:04:28.241Z,27.11
2023-04-23T17:06:54.898Z,27.11
2023-04-23T17:09:21.469Z,27.09
2023-04-23T17:11:47.982Z,27.06
2023-04-23T17:14:14.578Z,26.95
2023-04-23T17:16:41.722Z,26.93
2023-04-23T17:19:08.397Z,26.96
2023-04-23T17:21:35.003Z,26.91
2023-04-23T17:24:01.797Z,26.97
2023-04-23T17:26:28.297Z,27.00
2023-04-23T17:28:54.899Z,26.99
2023-04-23T17:31:21.682Z,27.05
2023-04-23T17:33:49.566Z,26.99
2023-04-23T17:36:17.169Z,26.94
2023-04-23T17:38:43.783Z,27.00
2023-04-23T17:41:10.376Z,27.00
2023-04-23T17:43:37.078Z,27.06
2023-04-23T17:46:03.790Z,27.02
2023-04-23T17:48:30.494Z,27.01
2023-04-23T17:50:57.091Z,27.04
2023-04-23T17:53:23.637Z,27.02
2023-04-23T17:55:50.136Z,27.00
2023-04-23T17:58:16.766Z,27.00
2023-04-23T18:00:43.465Z,27.02
2023-04-23T18:03:11.740Z,26.52
2023-04-23T18:05:38.493Z,26.33
2023-04-23T18:08:06.899Z,26.19
2023-04-23T18:10:33.578Z,26.03
2023-04-23T18:13:03.460Z,26.04
2023-04-23T18:15:32.303Z,25.89
2023-04-23T18:17:59.119Z,25.82
2023-04-23T18:20:26.600Z,25.73
2023-04-23T18:22:56.316Z,25.66
2023-04-23T18:25:25.058Z,25.63
2023-04-23T18:27:52.141Z,25.56
2023-04-23T18:30:25.574Z,25.34
2023-04-23T18:33:03.825Z,25.45
2023-04-23T18:35:31.544Z,25.12
2023-04-23T18:38:08.557Z,25.20
2023-04-23T18:40:35.528Z,25.10
2023-04-23T18:43:02.693Z,25.05
2023-04-23T18:45:32.360Z,24.94
2023-04-23T18:48:04.617Z,24.99
2023-04-23T18:50:51.508Z,25.15
2023-04-23T18:53:19.089Z,24.81
2023-04-23T18:55:46.902Z,24.73
2023-04-23T18:58:13.414Z,24.61
2023-04-23T19:00:39.980Z,24.54
2023-04-23T19:03:15.475Z,24.48
2023-04-23T19:05:50.766Z,24.43
2023-04-23T19:08:17.262Z,24.35
2023-04-23T19:10:44.083Z,24.30
2023-04-23T19:13:10.733Z,24.24
2023-04-23T19:15:37.310Z,24.12
2023-04-23T19:18:06.092Z,24.05
2023-04-23T19:20:32.675Z,24.04
2023-04-23T19:22:59.183Z,24.03
2023-04-23T19:25:25.730Z,23.96
2023-04-23T19:27:52.262Z,23.94
2023-04-23T19:30:18.845Z,23.86
2023-04-23T19:32:45.468Z,23.84
2023-04-23T19:35:12.164Z,23.69
2023-04-23T19:37:38.719Z,23.62
2023-04-23T19:40:05.740Z,23.53
2023-04-23T19:42:32.665Z,23.47
2023-04-23T19:44:59.148Z,23.37
2023-04-23T19:47:25.753Z,23.33
2023-04-23T19:49:52.509Z,23.27
2023-04-23T19:52:21.918Z,23.27
2023-04-23T19:54:51.408Z,23.13
2023-04-23T19:57:19.316Z,23.10
2023-04-23T19:59:46.268Z,23.07
2023-04-23T20:02:13.025Z,23.07
2023-04-23T20:04:39.842Z,23.03
2023-04-23T20:07:06.948Z,22.97
2023-04-23T20:09:34.006Z,22.96
2023-04-23T20:12:01.496Z,22.97
2023-04-23T20:14:28.028Z,22.91
2023-04-23T20:16:54.665Z,22.83
2023-04-23T20:19:21.617Z,22.89
2023-04-23T20:21:48.160Z,22.91
2023-04-23T20:24:14.965Z,22.89
2023-04-23T20:26:42.180Z,22.91
2023-04-23T20:29:08.820Z,22.94
2023-04-23T20:31:35.473Z,22.97
2023-04-23T20:34:02.360Z,23.02
2023-04-23T20:36:33.191Z,22.99
2023-04-23T20:39:03.271Z,23.07
2023-04-23T20:41:32.405Z,23.19
2023-04-23T20:43:59.303Z,23.12
2023-04-23T20:46:26.477Z,23.09
2023-04-23T20:48:53.834Z,23.06
2023-04-23T20:51:20.495Z,23.03
2023-04-23T20:53:47.341Z,23.51
2023-04-23T20:56:14.054Z,23.66
2023-04-23T20:58:41.153Z,23.66
2023-04-23T21:01:08.267Z,23.65
2023-04-23T21:03:36.995Z,23.61
2023-04-23T21:06:04.868Z,23.53
2023-04-23T21:08:31.476Z,23.42
2023-04-23T21:10:58.460Z,22.92
2023-04-23T21:13:25.042Z,22.74
2023-04-23T21:15:51.954Z,22.68
2023-04-23T21:18:19.146Z,23.25
2023-04-23T21:20:48.235Z,23.35
2023-04-23T21:23:14.785Z,22.72
2023-04-23T21:25:41.400Z,22.66
2023-04-23T21:28:07.927Z,22.65
2023-04-23T21:30:44.375Z,22.75
2023-04-23T21:33:11.045Z,22.61
2023-04-23T21:35:37.615Z,22.57
2023-04-23T21:38:04.158Z,22.61
2023-04-23T21:40:30.979Z,22.65
2023-04-23T21:42:57.510Z,22.62
2023-04-23T21:45:24.201Z,22.60
2023-04-23T21:47:51.068Z,22.60
2023-04-23T21:50:17.670Z,22.50
2023-04-23T21:52:44.237Z,22.39
2023-04-23T21:55:12.272Z,22.34
2023-04-23T21:57:39.163Z,22.40
2023-04-23T22:00:06.912Z,22.40
2023-04-23T22:02:48.881Z,22.42
2023-04-23T22:05:17.131Z,23.06
2023-04-23T22:07:44.636Z,23.08
2023-04-23T22:10:12.607Z,23.10
2023-04-23T22:12:41.090Z,23.09
2023-04-23T22:15:09.875Z,23.07
2023-04-23T22:17:38.437Z,22.51
2023-04-23T22:20:06.822Z,22.25
2023-04-23T22:22:36.788Z,22.30
2023-04-23T22:25:06.355Z,22.67
2023-04-23T22:27:34.848Z,22.75
2023-04-23T22:30:01.576Z,22.83
2023-04-23T22:32:28.213Z,22.84
2023-04-23T22:34:54.901Z,22.89
2023-04-23T22:37:21.620Z,22.88
2023-04-23T22:39:48.142Z,22.86
2023-04-23T22:42:16.144Z,22.83
2023-04-23T22:44:43.202Z,22.76
2023-04-23T22:47:10.189Z,22.89
2023-04-23T22:49:36.729Z,22.91
2023-04-23T22:52:03.279Z,22.93
2023-04-23T22:54:29.968Z,22.92
2023-04-23T22:56:56.496Z,22.93
2023-04-23T22:59:23.266Z,22.87
2023-04-23T23:01:49.799Z,22.82
2023-04-23T23:04:16.369Z,22.84
2023-04-23T23:06:43.269Z,22.86
2023-04-23T23:09:10.430Z,22.75
2023-04-23T23:11:37.112Z,22.79
2023-04-23T23:14:04.363Z,22.78
2023-04-23T23:16:30.903Z,22.70
2023-04-23T23:18:57.920Z,22.75
2023-04-23T23:21:24.795Z,22.71
2023-04-23T23:23:51.473Z,22.54
2023-04-23T23:26:18.138Z,22.53
2023-04-23T23:28:44.677Z,22.58
2023-04-23T23:31:11.376Z,22.60
2023-04-23T23:33:39.572Z,22.57
2023-04-23T23:36:08.315Z,22.57
2023-04-23T23:38:34.843Z,22.51
2023-04-23T23:41:01.445Z,22.47
2023-04-23T23:43:27.996Z,22.52
2023-04-23T23:45:54.488Z,22.54
2023-04-23T23:48:21.057Z,22.52
2023-04-23T23:50:47.568Z,22.56
2023-04-23T23:53:14.119Z,22.53
2023-04-23T23:55:40.792Z,22.54
2023-04-23T23:58:07.346Z,22.47
